Time;durP1;ratioP1;P1;durP2;ratioP2;P2;SDS_P1;SDS_P2;PMS_P1;PMS_P2;Temp;Humidity;BMP_temperature;BMP_pressure;BME280_temperature;BME280_humidity;BME280_pressure;Samples;Min_cycle;Max_cycle;Signal;HPM_P1;HPM_P2
2022/01/02 00:00:19;;;;;;;4.35;1.65;;;;;;;5.30;74.79;101707.59;1764505;79;25738;-60
2022/01/02 00:02:50;;;;;;;2.17;1.32;;;;;;;5.26;74.16;101718.48;1781542;79;26208;-62
2022/01/02 00:05:21;;;;;;;3.72;1.60;;;;;;;5.24;73.81;101718.58;1762345;79;25847;-61
2022/01/02 00:08:02;;;;;;;2.90;1.92;;;;;;;5.22;73.34;101724.91;1792582;79;25720;-61
2022/01/02 00:10:37;;;;;;;2.10;1.30;;;;;;;5.21;72.60;101726.73;1772389;78;25957;-61
2022/01/02 00:13:06;;;;;;;2.62;1.45;;;;;;;5.22;72.02;101735.58;1761166;81;25684;-61
2022/01/02 00:15:38;;;;;;;2.67;1.12;;;;;;;5.21;71.22;101733.40;1761557;81;28111;-61
2022/01/02 00:18:11;;;;;;;1.52;1.00;;;;;;;5.20;71.40;101729.00;1776637;79;25633;-61
2022/01/02 00:20:45;;;;;;;2.08;1.15;;;;;;;5.16;70.76;101740.30;1796068;79;26299;-61
2022/01/02 00:23:07;;;;;;;2.58;1.40;;;;;;;5.13;71.14;101741.77;1774805;79;26494;-60
2022/01/02 00:25:41;;;;;;;1.57;1.30;;;;;;;5.07;70.31;101758.55;1781188;79;25719;-61
2022/01/02 00:28:12;;;;;;;1.82;0.80;;;;;;;4.99;70.67;101755.80;1741921;79;27486;-61
2022/01/02 00:30:41;;;;;;;3.55;0.90;;;;;;;4.90;70.42;101756.73;1777504;79;25689;-61
2022/01/02 00:33:11;;;;;;;2.50;1.40;;;;;;;4.81;70.34;101769.58;1729356;81;25798;-61
2022/01/02 00:35:39;;;;;;;1.35;1.00;;;;;;;4.76;70.74;101772.06;1761342;81;26522;-61
2022/01/02 00:38:13;;;;;;;2.87;1.20;;;;;;;4.69;70.61;101774.15;1776054;79;26005;-60
2022/01/02 00:40:44;;;;;;;4.15;2.10;;;;;;;4.61;70.73;101783.86;1764057;79;27507;-61
2022/01/02 00:43:18;;;;;;;3.72;1.87;;;;;;;4.54;70.78;101779.28;1764846;79;25482;-61
2022/01/02 00:45:47;;;;;;;11.10;4.60;;;;;;;4.48;70.68;101785.36;1762371;79;25719;-61
2022/01/02 00:48:22;;;;;;;7.70;2.87;;;;;;;4.42;71.04;101785.17;1749446;79;25908;-60
2022/01/02 00:50:54;;;;;;;5.42;2.17;;;;;;;4.37;71.23;101789.38;1775919;79;25727;-61
2022/01/02 00:53:25;;;;;;;3.15;1.70;;;;;;;4.35;71.29;101795.24;1783009;79;27442;-61
2022/01/02 00:55:57;;;;;;;2.12;1.15;;;;;;;4.34;71.47;101797.98;1808450;78;25720;-61
2022/01/02 00:58:32;;;;;;;2.02;0.90;;;;;;;4.31;71.58;101799.00;1790623;78;25780;-61
2022/01/02 01:01:04;;;;;;;3.05;1.20;;;;;;;4.28;71.18;101791.14;1788056;78;25750;-60
2022/01/02 01:03:33;;;;;;;2.17;1.50;;;;;;;4.21;71.67;101791.88;1798631;78;25701;-61
2022/01/02 01:06:04;;;;;;;2.35;1.40;;;;;;;4.15;71.77;101792.16;1814944;78;27507;-60
2022/01/02 01:08:33;;;;;;;5.90;2.80;;;;;;;4.07;71.59;101788.98;1816230;78;25784;-60
2022/01/02 01:11:05;;;;;;;5.10;2.70;;;;;;;3.98;71.82;101798.27;1790290;78;25714;-61
2022/01/02 01:13:32;;;;;;;5.92;1.70;;;;;;;3.92;71.96;101789.20;1781406;80;26516;-60
2022/01/02 01:16:02;;;;;;;3.90;1.87;;;;;;;3.84;72.03;101796.66;1781495;80;25891;-61
2022/01/02 01:18:30;;;;;;;3.75;1.72;;;;;;;3.78;71.99;101795.13;1781535;80;27458;-61
2022/01/02 01:21:00;;;;;;;4.05;2.62;;;;;;;3.70;72.27;101796.81;1786531;78;25493;-61
2022/01/02 01:23:27;;;;;;;4.67;2.40;;;;;;;3.63;72.26;101795.32;1772709;80;25810;-61
2022/01/02 01:25:55;;;;;;;2.83;1.75;;;;;;;3.54;72.64;101807.23;1789836;78;26596;-61
2022/01/02 01:28:25;;;;;;;2.60;1.67;;;;;;;3.48;72.95;101803.52;1809028;78;25704;-61
2022/01/02 01:30:52;;;;;;;4.70;2.37;;;;;;;3.46;73.07;101814.69;1817307;78;27469;-61
2022/01/02 01:33:19;;;;;;;4.33;1.72;;;;;;;3.42;73.19;101820.59;1814719;78;25713;-60
2022/01/02 01:35:49;;;;;;;3.52;2.25;;;;;;;3.40;73.28;101823.78;1756319;81;25802;-61
2022/01/02 01:38:16;;;;;;;3.98;2.33;;;;;;;3.36;73.35;101824.83;1802010;78;25780;-61
2022/01/02 01:40:51;;;;;;;3.52;1.52;;;;;;;3.32;73.68;101821.91;1817319;78;25713;-61
2022/01/02 01:43:23;;;;;;;5.22;1.95;;;;;;;3.27;73.77;101835.39;1808601;78;27516;-61
2022/01/02 01:45:52;;;;;;;3.00;1.90;;;;;;;3.25;73.81;101837.72;1787265;78;25464;-61
2022/01/02 01:48:22;;;;;;;7.30;3.85;;;;;;;3.25;73.91;101827.08;1787597;80;26365;-61
2022/01/02 01:50:51;;;;;;;2.17;1.07;;;;;;;3.24;74.09;101829.34;1796943;78;25744;-61
2022/01/02 01:53:21;;;;;;;5.53;2.40;;;;;;;3.24;74.16;101834.66;1807548;78;26107;-61
2022/01/02 01:55:50;;;;;;;2.10;1.67;;;;;;;3.23;74.22;101830.27;1802661;78;27493;-61
2022/01/02 01:58:22;;;;;;;5.95;1.98;;;;;;;3.21;74.28;101832.11;1784231;79;25790;-61
2022/01/02 02:00:50;;;;;;;3.05;1.67;;;;;;;3.19;74.38;101825.53;1789734;79;25782;-61
2022/01/02 02:03:20;;;;;;;2.75;1.40;;;;;;;3.18;74.34;101829.12;1798299;79;25827;-60
2022/01/02 02:05:47;;;;;;;3.55;1.37;;;;;;;3.17;74.38;101830.52;1802647;79;25767;-61
2022/01/02 02:08:19;;;;;;;3.70;1.37;;;;;;;3.15;74.47;101827.90;1787502;78;27461;-61
2022/01/02 02:10:54;;;;;;;1.77;1.10;;;;;;;3.10;74.54;101824.58;1763893;79;25802;-60
2022/01/02 02:13:15;;;;;;;2.33;1.52;;;;;;;3.08;74.72;101827.31;1793730;79;25695;-61
2022/01/02 02:15:46;;;;;;;1.32;1.00;;;;;;;3.08;74.83;101837.06;1783989;80;25800;-61
2022/01/02 02:18:14;;;;;;;3.40;1.57;;;;;;;3.04;74.82;101833.66;1788939;79;25782;-61
2022/01/02 02:20:42;;;;;;;2.42;1.17;;;;;;;3.04;75.14;101834.14;1792682;79;27352;-62
2022/01/02 02:23:17;;;;;;;2.00;1.42;;;;;;;3.00;75.17;101840.05;1801918;79;26501;-61
2022/01/02 02:25:46;;;;;;;3.45;1.40;;;;;;;2.98;75.24;101849.86;1803272;79;26250;-61
2022/01/02 02:28:17;;;;;;;3.58;1.47;;;;;;;2.95;75.27;101857.95;1796907;79;25801;-61
2022/01/02 02:30:48;;;;;;;1.62;1.17;;;;;;;2.92;75.27;101864.70;1784823;79;25740;-61
2022/01/02 02:33:17;;;;;;;4.12;1.72;;;;;;;2.89;75.41;101866.17;1794154;79;27482;-61
2022/01/02 02:35:49;;;;;;;2.33;1.20;;;;;;;2.89;75.45;101859.53;1803083;78;25720;-61
2022/01/02 02:38:18;;;;;;;2.30;1.37;;;;;;;2.87;75.51;101864.88;1802432;79;25780;-61
2022/01/02 02:40:47;;;;;;;1.82;1.40;;;;;;;2.82;75.35;101865.05;1802294;79;26410;-61
2022/01/02 02:43:30;;;;;;;3.45;1.37;;;;;;;2.78;75.44;101872.77;1793517;79;25814;-61
2022/01/02 02:51:39;;;;;;;3.22;1.72;;;;;;;2.72;75.68;101881.42;1784106;79;25658;-61
2022/01/02 02:54:02;;;;;;;2.80;2.15;;;;;;;2.71;75.87;101880.56;1783335;79;26482;-61
2022/01/02 02:56:41;;;;;;;1.85;1.42;;;;;;;2.70;75.81;101879.27;1793051;79;25812;-61
2022/01/02 02:58:58;;;;;;;2.72;1.57;;;;;;;2.68;75.93;101870.05;1769120;79;28211;-61
2022/01/02 03:01:29;;;;;;;1.22;1.12;;;;;;;2.68;75.99;101878.49;1802134;79;25815;-61
2022/01/02 03:03:58;;;;;;;2.62;1.40;;;;;;;2.62;75.99;101885.75;1802559;79;25742;-61
2022/01/02 03:06:25;;;;;;;1.92;1.02;;;;;;;2.57;76.18;101885.52;1801600;79;26687;-61
2022/01/02 03:08:53;;;;;;;2.62;1.55;;;;;;;2.53;76.29;101886.09;1770655;79;25787;-61
2022/01/02 03:11:24;;;;;;;5.42;3.62;;;;;;;2.50;76.38;101887.08;1779992;79;28328;-61
2022/01/02 03:13:54;;;;;;;11.90;6.12;;;;;;;2.48;76.88;101893.38;1764597;79;25878;-61
2022/01/02 03:16:22;;;;;;;6.65;3.25;;;;;;;2.44;76.97;101895.28;1801301;79;25664;-61
2022/01/02 03:18:49;;;;;;;3.42;1.80;;;;;;;2.40;77.04;101887.48;1802563;79;25793;-62
2022/01/02 03:21:17;;;;;;;2.00;1.50;;;;;;;2.38;77.06;101888.84;1802626;79;25831;-62
2022/01/02 03:23:45;;;;;;;4.47;1.27;;;;;;;2.38;76.99;101893.30;1802521;79;27632;-62
2022/01/02 03:26:13;;;;;;;5.95;1.20;;;;;;;2.41;76.83;101888.73;1802157;79;25792;-61
2022/01/02 03:28:42;;;;;;;1.98;1.20;;;;;;;2.43;76.41;101896.20;1802519;79;25797;-61
2022/01/02 03:31:09;;;;;;;1.67;1.05;;;;;;;2.44;76.30;101883.33;1801737;79;25809;-61
2022/01/02 03:33:36;;;;;;;2.60;1.20;;;;;;;2.45;76.06;101897.02;1802470;79;25704;-62
2022/01/02 03:36:06;;;;;;;3.72;1.37;;;;;;;2.45;76.11;101898.79;1802803;79;27446;-62
2022/01/02 03:38:36;;;;;;;3.60;1.20;;;;;;;2.45;75.99;101902.33;1767107;79;25826;-62
2022/01/02 03:41:03;;;;;;;1.95;1.10;;;;;;;2.45;75.73;101904.09;1766392;81;25733;-61
2022/01/02 03:43:30;;;;;;;1.80;1.02;;;;;;;2.45;75.54;101911.63;1786506;79;26578;-61
2022/01/02 03:46:02;;;;;;;1.52;1.20;;;;;;;2.44;75.51;101905.91;1802360;79;25760;-62
2022/01/02 03:48:29;;;;;;;4.20;1.25;;;;;;;2.43;75.22;101909.48;1799740;78;27474;-61
2022/01/02 03:50:56;;;;;;;2.60;1.00;;;;;;;2.40;75.38;101914.89;1801966;79;25453;-62
2022/01/02 03:53:24;;;;;;;2.17;1.57;;;;;;;2.39;75.07;101909.17;1770871;79;25762;-62
2022/01/02 03:55:53;;;;;;;2.55;0.98;;;;;;;2.38;75.00;101911.89;1768512;78;26437;-62
2022/01/02 03:58:20;;;;;;;2.47;1.05;;;;;;;2.33;75.19;101913.38;1791155;79;27189;-62
2022/01/02 04:00:47;;;;;;;1.85;1.05;;;;;;;2.32;75.30;101913.86;1784604;79;27841;-62
2022/01/02 04:03:15;;;;;;;0.90;0.82;;;;;;;2.32;75.15;101923.16;1796294;79;25603;-62
2022/01/02 04:05:44;;;;;;;1.22;1.10;;;;;;;2.29;75.15;101918.37;1803216;79;25938;-62
2022/01/02 04:08:13;;;;;;;1.30;0.70;;;;;;;2.28;74.98;101921.98;1789387;79;25854;-61
2022/01/02 04:10:40;;;;;;;2.00;0.93;;;;;;;2.27;75.05;101926.41;1797899;79;25725;-62
2022/01/02 04:13:07;;;;;;;3.62;0.93;;;;;;;2.24;74.93;101930.97;1798663;79;27451;-62
2022/01/02 04:15:36;;;;;;;1.82;1.22;;;;;;;2.24;75.13;101938.93;1783305;79;25666;-61
2022/01/02 04:18:07;;;;;;;1.45;1.17;;;;;;;2.21;74.85;101931.95;1774829;80;25764;-61
2022/01/02 04:20:34;;;;;;;2.15;1.22;;;;;;;2.16;74.57;101934.77;1770515;80;25800;-62
2022/01/02 04:23:01;;;;;;;2.17;1.32;;;;;;;2.11;74.50;101943.33;1770542;80;25791;-62
2022/01/02 04:25:28;;;;;;;1.45;1.20;;;;;;;2.10;74.56;101952.68;1771182;80;27540;-61
2022/01/02 04:27:55;;;;;;;2.62;1.37;;;;;;;2.01;74.37;101954.73;1783745;79;25805;-62
2022/01/02 04:30:22;;;;;;;3.45;1.60;;;;;;;1.95;74.28;101952.30;1784294;80;25722;-61
2022/01/02 04:32:52;;;;;;;2.50;1.42;;;;;;;1.92;74.30;101955.51;1784302;80;25803;-62
2022/01/02 04:35:20;;;;;;;2.85;1.65;;;;;;;1.87;74.27;101960.50;1784425;80;25756;-61
2022/01/02 04:37:47;;;;;;;2.37;1.47;;;;;;;1.82;74.14;101963.77;1771598;80;28175;-61
2022/01/02 04:40:15;;;;;;;1.22;1.00;;;;;;;1.79;74.21;101966.52;1789269;79;25981;-61
2022/01/02 04:42:42;;;;;;;1.95;1.27;;;;;;;1.78;74.39;101975.39;1801515;78;25686;-61
2022/01/02 04:45:09;;;;;;;1.22;1.12;;;;;;;1.78;74.52;101979.84;1760930;80;25790;-61
2022/01/02 04:47:37;;;;;;;2.47;1.10;;;;;;;1.78;74.62;101980.70;1775524;80;25839;-61
2022/01/02 04:50:09;;;;;;;1.82;1.10;;;;;;;1.79;74.81;101978.93;1779428;80;27537;-61
2022/01/02 04:52:36;;;;;;;2.33;1.37;;;;;;;1.76;74.76;101987.83;1778038;79;25729;-61
2022/01/02 04:55:10;;;;;;;2.62;1.27;;;;;;;1.76;74.95;101983.85;1784050;80;25621;-61
2022/01/02 04:57:37;;;;;;;1.17;0.85;;;;;;;1.78;75.07;101989.98;1782679;79;25800;-60
2022/01/02 05:00:08;;;;;;;2.65;1.00;;;;;;;1.75;74.72;101992.72;1779940;79;25713;-61
2022/01/02 05:02:35;;;;;;;1.32;1.10;;;;;;;1.72;74.57;101999.00;1746343;82;28355;-61
2022/01/02 05:05:04;;;;;;;2.27;1.42;;;;;;;1.71;74.49;101997.26;1746172;82;25726;-61
2022/01/02 05:07:31;;;;;;;10.28;1.72;;;;;;;1.72;74.34;102007.44;1776706;80;25848;-61
2022/01/02 05:10:00;;;;;;;4.97;2.98;;;;;;;1.71;74.25;102003.89;1770568;80;25801;-61
2022/01/02 05:12:27;;;;;;;3.85;1.85;;;;;;;1.66;74.12;102004.98;1775097;79;25800;-61
2022/01/02 05:14:54;;;;;;;2.67;1.50;;;;;;;1.63;74.21;102015.20;1768480;81;28258;-61
2022/01/02 05:17:21;;;;;;;4.53;1.90;;;;;;;1.59;74.18;102021.98;1768489;81;25805;-61
2022/01/02 05:19:48;;;;;;;3.22;1.57;;;;;;;1.54;74.28;102028.75;1769068;80;25676;-61
2022/01/02 05:22:15;;;;;;;2.05;1.37;;;;;;;1.52;74.24;102034.11;1777571;79;25862;-61
2022/01/02 05:24:42;;;;;;;5.80;1.27;;;;;;;1.52;74.14;102035.44;1777168;80;25718;-61
2022/01/02 05:27:09;;;;;;;3.15;1.30;;;;;;;1.50;74.19;102034.61;1773053;80;27487;-61
2022/01/02 05:29:36;;;;;;;4.22;1.45;;;;;;;1.47;74.29;102035.16;1776968;80;25709;-61
2022/01/02 05:32:04;;;;;;;2.62;1.37;;;;;;;1.46;74.60;102034.31;1772047;80;25781;-61
2022/01/02 05:34:32;;;;;;;2.15;1.47;;;;;;;1.44;74.72;102039.22;1768867;80;25850;-61
2022/01/02 05:36:59;;;;;;;3.25;1.47;;;;;;;1.44;74.69;102032.16;1777229;79;25939;-61
2022/01/02 05:39:26;;;;;;;2.30;1.35;;;;;;;1.39;74.58;102034.94;1777234;80;27589;-61
2022/01/02 05:41:54;;;;;;;1.90;1.30;;;;;;;1.36;74.61;102030.19;1772621;80;25788;-61
2022/01/02 05:44:24;;;;;;;2.52;1.52;;;;;;;1.34;74.75;102042.18;1772254;80;25719;-61
2022/01/02 05:46:53;;;;;;;4.97;1.90;;;;;;;1.33;74.96;102050.16;1777253;80;25791;-61
2022/01/02 05:49:21;;;;;;;4.67;2.12;;;;;;;1.34;75.08;102054.11;1777057;80;25790;-61
2022/01/02 05:51:48;;;;;;;2.90;1.42;;;;;;;1.31;75.06;102067.88;1782396;79;28770;-60
2022/01/02 05:54:15;;;;;;;4.55;1.90;;;;;;;1.20;75.24;102069.09;1776378;80;25842;-61
2022/01/02 05:56:44;;;;;;;5.60;1.77;;;;;;;1.10;75.39;102060.98;1771262;80;25718;-60
2022/01/02 05:59:11;;;;;;;3.72;1.42;;;;;;;1.03;75.84;102066.05;1764303;80;25863;-60
2022/01/02 06:01:38;;;;;;;4.78;2.00;;;;;;;0.91;76.54;102062.81;1778938;80;25633;-61
2022/01/02 06:04:08;;;;;;;6.30;2.33;;;;;;;0.83;76.91;102051.55;1779621;79;27473;-61
2022/01/02 06:06:37;;;;;;;3.30;1.92;;;;;;;0.81;77.01;102061.31;1761166;80;25929;-61
2022/01/02 06:09:05;;;;;;;7.62;2.75;;;;;;;0.75;77.24;102062.34;1761850;80;25706;-61
2022/01/02 06:11:33;;;;;;;4.20;2.17;;;;;;;0.73;77.46;102068.60;1763467;80;25746;-60
2022/01/02 06:14:00;;;;;;;7.40;2.42;;;;;;;0.72;77.43;102076.98;1778297;80;25702;-60
2022/01/02 06:16:27;;;;;;;4.92;2.17;;;;;;;0.72;77.46;102080.10;1762858;80;27497;-61
2022/01/02 06:18:55;;;;;;;3.92;2.42;;;;;;;0.69;77.72;102087.68;1768007;79;26402;-61
2022/01/02 06:21:25;;;;;;;3.22;2.40;;;;;;;0.72;77.51;102084.08;1778760;80;25744;-61
2022/01/02 06:23:53;;;;;;;4.70;2.45;;;;;;;0.79;77.58;102088.30;1777590;80;26141;-61
2022/01/02 06:26:23;;;;;;;3.98;2.35;;;;;;;0.87;77.67;102094.26;1764722;80;25703;-61
2022/01/02 06:28:50;;;;;;;3.60;2.33;;;;;;;0.97;77.62;102097.98;1796711;79;27498;-61
2022/01/02 06:31:18;;;;;;;3.37;2.67;;;;;;;1.01;77.38;102098.33;1788103;79;25730;-60
2022/01/02 06:33:45;;;;;;;4.55;2.90;;;;;;;1.05;77.42;102100.86;1781166;79;26283;-61
2022/01/02 06:36:13;;;;;;;3.02;2.45;;;;;;;1.12;77.40;102097.56;1778529;80;25765;-62
2022/01/02 06:38:41;;;;;;;4.55;3.00;;;;;;;1.18;77.14;102101.39;1748145;82;25799;-62
2022/01/02 06:41:12;;;;;;;5.90;2.77;;;;;;;1.19;77.00;102104.45;1754312;80;27492;-63
2022/01/02 06:43:40;;;;;;;5.33;2.83;;;;;;;1.17;76.51;102112.02;1772195;80;25854;-62
2022/01/02 06:46:08;;;;;;;6.95;2.77;;;;;;;1.13;76.46;102111.70;1762019;80;26417;-63
2022/01/02 06:48:35;;;;;;;7.60;2.40;;;;;;;1.07;76.36;102118.92;1765055;79;25778;-61
2022/01/02 06:51:03;;;;;;;2.85;2.30;;;;;;;1.01;76.52;102119.53;1773174;79;25619;-62
2022/01/02 06:53:30;;;;;;;8.55;3.40;;;;;;;0.99;76.56;102114.72;1773321;80;27463;-62
2022/01/02 06:55:57;;;;;;;3.62;2.42;;;;;;;1.02;76.65;102118.63;1771558;80;25712;-62
2022/01/02 06:58:24;;;;;;;5.58;2.67;;;;;;;1.02;76.69;102115.98;1768805;80;25507;-62
2022/01/02 07:00:53;;;;;;;5.72;3.20;;;;;;;1.03;76.56;102126.52;1761211;80;25823;-62
2022/01/02 07:03:20;;;;;;;5.00;2.98;;;;;;;1.03;76.50;102125.20;1772037;80;25843;-61
2022/01/02 07:05:47;;;;;;;6.20;3.30;;;;;;;1.04;76.45;102125.62;1778960;80;27511;-62
2022/01/02 07:08:15;;;;;;;3.98;2.77;;;;;;;1.07;76.38;102129.96;1772752;79;25725;-61
2022/01/02 07:10:45;;;;;;;3.80;2.90;;;;;;;1.16;76.62;102136.81;1769930;80;26491;-62
2022/01/02 07:13:11;;;;;;;5.95;2.75;;;;;;;1.21;76.58;102120.31;1772211;80;26367;-63
2022/01/02 07:15:40;;;;;;;6.25;2.92;;;;;;;1.26;76.51;102130.31;1770231;80;25990;-62
2022/01/02 07:18:07;;;;;;;5.22;2.40;;;;;;;1.33;76.42;102132.34;1761362;80;27056;-62
2022/01/02 07:20:34;;;;;;;7.60;3.08;;;;;;;1.33;76.04;102132.34;1767685;79;25612;-62
2022/01/02 07:23:00;;;;;;;6.28;3.17;;;;;;;1.33;75.95;102135.89;1777430;79;25630;-62
2022/01/02 07:25:30;;;;;;;6.00;3.50;;;;;;;1.31;75.86;102136.38;1778314;80;25777;-62
2022/01/02 07:27:58;;;;;;;5.17;3.00;;;;;;;1.33;75.77;102137.66;1777514;79;25755;-61
2022/01/02 07:30:24;;;;;;;7.35;3.42;;;;;;;1.34;75.70;102135.41;1772429;80;27859;-61
2022/01/02 07:32:51;;;;;;;6.62;3.45;;;;;;;1.35;75.67;102127.41;1762487;80;25846;-62
2022/01/02 07:35:18;;;;;;;7.00;3.98;;;;;;;1.39;75.68;102121.12;1766662;79;25765;-61
2022/01/02 07:37:46;;;;;;;5.87;3.40;;;;;;;1.46;75.72;102125.80;1778676;80;26660;-59
2022/01/02 07:40:13;;;;;;;4.92;3.35;;;;;;;1.53;75.49;102126.03;1779020;80;25863;-62
2022/01/02 07:42:41;;;;;;;7.25;3.22;;;;;;;1.62;75.39;102125.34;1778834;80;27390;-62
2022/01/02 07:45:10;;;;;;;5.15;2.98;;;;;;;1.72;75.34;102134.30;1778215;80;25779;-61
2022/01/02 07:47:39;;;;;;;7.28;3.30;;;;;;;1.83;75.00;102126.05;1778893;80;25688;-62
2022/01/02 07:50:08;;;;;;;4.20;2.22;;;;;;;1.95;75.14;102124.80;1783602;79;26633;-62
2022/01/02 07:52:36;;;;;;;5.65;3.90;;;;;;;2.08;74.63;102126.62;1779342;79;25656;-62
2022/01/02 07:55:04;;;;;;;5.75;3.25;;;;;;;2.21;74.28;102120.91;1766466;81;27429;-61
2022/01/02 07:57:31;;;;;;;4.85;2.77;;;;;;;2.32;73.91;102122.77;1766116;80;25479;-62
2022/01/02 07:59:58;;;;;;;6.55;3.02;;;;;;;2.42;72.96;102119.37;1765895;81;25749;-62
2022/01/02 08:02:25;;;;;;;4.47;3.10;;;;;;;2.51;72.19;102109.73;1784420;79;26592;-62
2022/01/02 08:04:52;;;;;;;7.40;3.02;;;;;;;2.58;71.46;102113.06;1731796;82;25811;-62
2022/01/02 08:07:19;;;;;;;7.45;3.92;;;;;;;2.65;71.41;102114.59;1731820;82;27533;-62
2022/01/02 08:09:47;;;;;;;6.55;3.80;;;;;;;2.76;71.44;102118.23;1731783;82;25734;-62
2022/01/02 08:12:16;;;;;;;6.25;3.52;;;;;;;2.87;71.09;102121.84;1732040;82;25780;-62
2022/01/02 08:14:42;;;;;;;5.15;3.30;;;;;;;2.96;70.88;102128.17;1731654;81;25844;-62
2022/01/02 08:17:09;;;;;;;7.00;3.50;;;;;;;3.11;70.68;102128.95;1753559;79;25819;-62
2022/01/02 08:19:36;;;;;;;5.12;3.35;;;;;;;3.25;70.16;102135.11;1797275;79;27467;-62
2022/01/02 08:22:03;;;;;;;5.40;3.60;;;;;;;3.44;70.39;102129.13;1797446;78;25787;-63
2022/01/02 08:24:30;;;;;;;5.97;3.15;;;;;;;3.80;68.95;102127.81;1797113;79;25638;-62
2022/01/02 08:27:01;;;;;;;6.33;3.92;;;;;;;4.38;67.48;102128.63;1797181;79;26173;-62
2022/01/02 08:29:29;;;;;;;5.20;3.20;;;;;;;4.98;65.86;102123.91;1797203;79;25772;-62
2022/01/02 08:31:56;;;;;;;3.65;2.25;;;;;;;5.52;65.55;102121.50;1770486;79;27476;-62
2022/01/02 08:34:23;;;;;;;4.80;3.35;;;;;;;5.93;62.52;102117.84;1762730;79;25717;-62
2022/01/02 08:36:49;;;;;;;2.75;1.87;;;;;;;6.12;61.09;102113.88;1766130;80;25710;-62
2022/01/02 08:39:16;;;;;;;3.60;2.17;;;;;;;6.40;62.76;102117.39;1778661;80;25770;-62
2022/01/02 08:41:43;;;;;;;3.15;1.45;;;;;;;6.89;61.36;102115.87;1778060;80;25778;-62
2022/01/02 08:44:10;;;;;;;2.62;1.82;;;;;;;7.45;61.95;102112.47;1775837;80;27478;-62
2022/01/02 08:46:37;;;;;;;3.98;1.75;;;;;;;7.93;59.83;102113.02;1791059;79;25737;-62
2022/01/02 08:49:04;;;;;;;2.65;1.50;;;;;;;8.40;59.47;102108.57;1797382;79;25757;-62
2022/01/02 08:51:31;;;;;;;3.58;2.12;;;;;;;8.84;57.49;102109.59;1791696;79;26532;-62
2022/01/02 08:54:01;;;;;;;2.47;1.92;;;;;;;8.91;52.39;102113.66;1759159;79;25678;-62
2022/01/02 08:56:28;;;;;;;3.60;2.17;;;;;;;9.08;52.50;102104.11;1762494;81;27550;-63
2022/01/02 08:58:55;;;;;;;4.70;2.00;;;;;;;9.47;53.61;102107.10;1762122;80;25856;-63
2022/01/02 09:01:22;;;;;;;4.30;1.98;;;;;;;9.96;54.27;102109.83;1780688;79;25698;-62
2022/01/02 09:03:48;;;;;;;2.27;1.40;;;;;;;10.52;54.94;102106.23;1797743;79;25834;-63
2022/01/02 09:06:17;;;;;;;1.92;1.70;;;;;;;10.94;53.24;102102.91;1797066;79;25844;-62
2022/01/02 09:08:43;;;;;;;2.55;1.72;;;;;;;11.25;51.15;102102.60;1797639;79;28268;-62
2022/01/02 09:11:10;;;;;;;2.98;2.17;;;;;;;11.57;51.34;102106.17;1797147;79;25817;-62
2022/01/02 09:13:37;;;;;;;2.67;1.80;;;;;;;11.82;50.80;102109.82;1797137;79;25599;-62
2022/01/02 09:16:04;;;;;;;4.22;1.80;;;;;;;12.18;50.60;102104.08;1779356;79;25827;-62
2022/01/02 09:18:33;;;;;;;1.60;1.20;;;;;;;12.45;48.77;102111.08;1762458;81;25831;-62
2022/01/02 09:21:02;;;;;;;5.78;1.90;;;;;;;12.62;46.28;102109.78;1762213;81;27679;-63
2022/01/02 09:23:29;;;;;;;2.37;1.70;;;;;;;12.77;47.78;102098.30;1761831;81;25832;-62
2022/01/02 09:25:57;;;;;;;5.00;2.25;;;;;;;12.83;44.92;102093.77;1762408;81;25770;-62
2022/01/02 09:28:24;;;;;;;2.85;2.10;;;;;;;12.82;43.33;102092.92;1762529;81;26707;-62
2022/01/02 09:30:51;;;;;;;2.40;1.60;;;;;;;13.06;45.97;102085.73;1769681;79;25716;-62
2022/01/02 09:33:18;;;;;;;4.05;2.05;;;;;;;13.48;47.18;102081.98;1762159;81;27505;-62
2022/01/02 09:35:45;;;;;;;1.90;1.60;;;;;;;13.61;42.69;102080.50;1762410;81;25919;-62
2022/01/02 09:38:13;;;;;;;2.83;1.77;;;;;;;13.65;42.29;102086.04;1775493;80;25700;-62
2022/01/02 09:40:42;;;;;;;4.45;1.55;;;;;;;13.89;42.99;102082.31;1764107;79;26342;-62
2022/01/02 09:43:13;;;;;;;2.30;1.85;;;;;;;13.99;42.39;102076.98;1762520;81;25739;-62
2022/01/02 09:45:41;;;;;;;1.87;1.50;;;;;;;14.43;43.32;102078.33;1762254;81;27461;-62
2022/01/02 09:48:09;;;;;;;2.95;2.02;;;;;;;14.85;43.24;102075.20;1762274;81;25843;-62
2022/01/02 09:50:37;;;;;;;2.58;1.70;;;;;;;15.36;42.63;102071.77;1761942;81;25760;-62
2022/01/02 09:53:07;;;;;;;2.95;1.32;;;;;;;15.66;42.00;102069.53;1821631;78;25777;-63
2022/01/02 09:55:34;;;;;;;2.22;1.47;;;;;;;15.72;38.02;102062.19;1784951;80;25718;-62
2022/01/02 09:58:03;;;;;;;11.33;7.50;;;;;;;15.96;41.04;102059.61;1775722;80;27450;-63
2022/01/02 10:00:30;;;;;;;4.00;1.65;;;;;;;16.22;40.39;102052.31;1778646;79;25838;-63
2022/01/02 10:03:03;;;;;;;3.30;1.70;;;;;;;16.57;39.83;102065.30;1799300;79;25706;-63
2022/01/02 10:05:55;;;;;;;2.72;1.57;;;;;;;16.96;36.98;102054.89;1799430;79;26303;-63
2022/01/02 10:08:33;;;;;;;2.92;1.52;;;;;;;17.04;34.60;102052.81;1799399;79;25737;-62
2022/01/02 10:11:16;;;;;;;2.92;1.85;;;;;;;16.93;37.93;102059.28;1799522;79;28240;-62
2022/01/02 10:13:52;;;;;;;3.33;1.70;;;;;;;17.25;38.31;102053.95;1798603;79;26080;-62
2022/01/02 10:16:31;;;;;;;3.42;2.30;;;;;;;17.69;37.67;102049.25;1776548;79;25796;-63
2022/01/02 10:19:03;;;;;;;2.62;1.75;;;;;;;18.08;36.81;102050.36;1762237;81;25724;-63
2022/01/02 10:21:36;;;;;;;1.80;1.60;;;;;;;18.21;36.97;102033.64;1758687;81;25530;-62
2022/01/02 10:24:26;;;;;;;2.87;1.60;;;;;;;18.35;33.03;102030.87;1761991;81;27484;-62
2022/01/02 10:27:13;;;;;;;2.77;1.80;;;;;;;18.23;32.52;102025.33;1761962;81;26153;-63
2022/01/02 10:29:56;;;;;;;2.85;2.00;;;;;;;18.12;35.79;102029.13;1766910;79;25744;-62
2022/01/02 10:32:41;;;;;;;5.53;2.22;;;;;;;18.43;35.60;102031.45;1758171;79;44680;-63
2022/01/02 10:35:22;;;;;;;2.95;1.67;;;;;;;18.57;34.17;102026.79;1761954;81;25729;-63
2022/01/02 10:38:01;;;;;;;2.67;1.87;;;;;;;18.68;34.01;102022.10;1779778;80;27523;-62
2022/01/02 10:40:38;;;;;;;3.55;2.15;;;;;;;18.80;32.62;102019.96;1765478;79;25833;-62
2022/01/02 10:43:29;;;;;;;2.40;1.90;;;;;;;18.73;32.66;102016.52;1770866;80;25480;-62
2022/01/02 10:46:03;;;;;;;4.12;2.25;;;;;;;18.66;32.06;102012.73;1764368;80;26511;-62
2022/01/02 10:48:32;;;;;;;;;;;;;;;18.60;33.45;102003.84;1773077;80;25776;-62
2022/01/02 10:51:19;;;;;;;2.58;2.10;;;;;;;18.71;33.03;102007.64;1769559;80;26679;-62
2022/01/02 10:53:58;;;;;;;3.77;2.92;;;;;;;18.77;33.02;102004.78;1746238;79;26262;-62
2022/01/02 10:56:30;;;;;;;4.12;2.65;;;;;;;18.98;33.60;102005.80;1799430;79;26389;-62
2022/01/02 10:58:59;;;;;;;2.98;2.30;;;;;;;19.08;31.44;102011.98;1795221;78;25713;-63
2022/01/02 11:01:28;;;;;;;3.35;1.90;;;;;;;19.09;33.35;102012.86;1773088;80;25744;-63
2022/01/02 11:03:57;;;;;;;6.75;2.72;;;;;;;19.54;33.50;102005.37;1775840;80;27455;-62
2022/01/02 11:06:33;;;;;;;3.77;2.75;;;;;;;19.73;32.14;102002.01;1766774;80;25739;-62
2022/01/02 11:09:05;;;;;;;3.95;2.33;;;;;;;19.69;31.33;102000.13;1745162;79;25825;-63
2022/01/02 11:11:33;;;;;;;3.85;2.80;;;;;;;19.43;30.61;102001.08;1743852;82;25968;-62
2022/01/02 11:14:00;;;;;;;4.28;2.75;;;;;;;19.36;30.42;101994.05;1744429;82;25702;-62
2022/01/02 11:16:31;;;;;;;4.33;2.50;;;;;;;19.19;29.96;101985.45;1744656;82;27476;-63
2022/01/02 11:18:57;;;;;;;5.17;2.27;;;;;;;19.28;31.03;101981.74;1744452;81;25835;-63
2022/01/02 11:21:27;;;;;;;3.65;2.17;;;;;;;19.50;31.08;101994.42;1744817;81;25809;-63
2022/01/02 11:24:05;;;;;;;2.83;2.10;;;;;;;19.75;31.01;101977.61;1749282;79;26456;-63
2022/01/02 11:26:57;;;;;;;4.20;2.60;;;;;;;19.94;31.06;101978.35;1798723;79;25668;-63
2022/01/02 11:29:29;;;;;;;2.72;2.25;;;;;;;19.41;28.36;101970.36;1799473;79;26756;-63
2022/01/02 11:31:58;;;;;;;2.92;2.25;;;;;;;18.70;29.10;101969.13;1799515;79;25712;-63
2022/01/02 11:34:29;;;;;;;3.33;2.25;;;;;;;18.17;29.91;101951.04;1789001;79;25942;-63
2022/01/02 11:37:17;;;;;;;3.37;2.35;;;;;;;17.87;30.90;101948.55;1784823;79;25759;-63
2022/01/02 11:39:56;;;;;;;2.50;1.80;;;;;;;17.52;31.43;101938.87;1772399;79;25700;-63
2022/01/02 11:42:42;;;;;;;1.70;1.60;;;;;;;17.36;30.92;101942.73;1759102;78;27459;-63
2022/01/02 11:45:26;;;;;;;4.53;1.82;;;;;;;16.82;31.57;101939.84;1776337;79;26130;-63
2022/01/02 11:47:52;;;;;;;2.72;1.90;;;;;;;16.14;32.54;101944.94;1779079;78;25728;-63